sensor_id;sensor_type;location;lat;lon;timestamp;P1;durP1;ratioP1;P2;durP2;ratioP2
49384;SDS011;36795;45.028;38.968;2022-10-31T00:02:30;12.07;;;3.70;;
49384;SDS011;36795;45.028;38.968;2022-10-31T00:05:16;11.90;;;3.78;;
49384;SDS011;36795;45.028;38.968;2022-10-31T00:08:02;13.70;;;3.97;;
49384;SDS011;36795;45.028;38.968;2022-10-31T00:10:48;12.68;;;3.58;;
49384;SDS011;36795;45.028;38.968;2022-10-31T00:13:34;11.65;;;3.87;;
49384;SDS011;36795;45.028;38.968;2022-10-31T00:16:22;12.52;;;3.75;;
49384;SDS011;36795;45.028;38.968;2022-10-31T00:19:09;11.90;;;3.75;;
49384;SDS011;36795;45.028;38.968;2022-10-31T00:21:55;10.77;;;3.92;;
49384;SDS011;36795;45.028;38.968;2022-10-31T00:24:41;10.63;;;3.55;;
49384;SDS011;36795;45.028;38.968;2022-10-31T00:27:27;16.65;;;4.40;;
49384;SDS011;36795;45.028;38.968;2022-10-31T00:30:13;13.02;;;4.15;;
49384;SDS011;36795;45.028;38.968;2022-10-31T00:32:59;10.00;;;3.35;;
49384;SDS011;36795;45.028;38.968;2022-10-31T00:35:49;12.73;;;3.60;;
49384;SDS011;36795;45.028;38.968;2022-10-31T00:38:36;9.88;;;3.25;;
49384;SDS011;36795;45.028;38.968;2022-10-31T00:41:22;12.27;;;4.05;;
49384;SDS011;36795;45.028;38.968;2022-10-31T00:44:08;15.75;;;4.70;;
49384;SDS011;36795;45.028;38.968;2022-10-31T00:46:54;16.08;;;5.60;;
49384;SDS011;36795;45.028;38.968;2022-10-31T00:49:40;17.62;;;6.25;;
49384;SDS011;36795;45.028;38.968;2022-10-31T00:52:26;20.17;;;7.20;;
49384;SDS011;36795;45.028;38.968;2022-10-31T00:55:13;20.48;;;6.95;;
49384;SDS011;36795;45.028;38.968;2022-10-31T00:57:59;19.60;;;6.18;;
49384;SDS011;36795;45.028;38.968;2022-10-31T01:00:48;15.38;;;4.95;;
49384;SDS011;36795;45.028;38.968;2022-10-31T01:03:41;16.05;;;4.72;;
49384;SDS011;36795;45.028;38.968;2022-10-31T01:06:29;13.20;;;3.65;;
49384;SDS011;36795;45.028;38.968;2022-10-31T01:09:15;13.00;;;3.80;;
49384;SDS011;36795;45.028;38.968;2022-10-31T01:12:02;14.02;;;3.70;;
49384;SDS011;36795;45.028;38.968;2022-10-31T01:14:48;12.10;;;3.90;;
49384;SDS011;36795;45.028;38.968;2022-10-31T01:17:36;11.10;;;3.30;;
49384;SDS011;36795;45.028;38.968;2022-10-31T01:20:22;11.05;;;3.40;;
49384;SDS011;36795;45.028;38.968;2022-10-31T01:23:08;10.88;;;3.50;;
49384;SDS011;36795;45.028;38.968;2022-10-31T01:29:06;14.73;;;3.83;;
49384;SDS011;36795;45.028;38.968;2022-10-31T01:31:53;7.40;;;2.75;;
49384;SDS011;36795;45.028;38.968;2022-10-31T01:34:40;12.68;;;3.40;;
49384;SDS011;36795;45.028;38.968;2022-10-31T01:37:26;14.43;;;3.60;;
49384;SDS011;36795;45.028;38.968;2022-10-31T01:40:12;8.50;;;3.10;;
49384;SDS011;36795;45.028;38.968;2022-10-31T01:42:58;10.57;;;2.90;;
49384;SDS011;36795;45.028;38.968;2022-10-31T01:45:46;9.93;;;3.22;;
49384;SDS011;36795;45.028;38.968;2022-10-31T01:48:36;6.25;;;2.60;;
49384;SDS011;36795;45.028;38.968;2022-10-31T01:51:23;9.13;;;2.90;;
49384;SDS011;36795;45.028;38.968;2022-10-31T01:54:15;17.50;;;5.22;;
49384;SDS011;36795;45.028;38.968;2022-10-31T01:57:04;15.43;;;4.93;;
49384;SDS011;36795;45.028;38.968;2022-10-31T01:59:53;17.95;;;5.60;;
49384;SDS011;36795;45.028;38.968;2022-10-31T02:02:43;16.02;;;5.65;;
49384;SDS011;36795;45.028;38.968;2022-10-31T02:05:31;17.70;;;5.97;;
49384;SDS011;36795;45.028;38.968;2022-10-31T02:08:20;17.37;;;5.12;;
49384;SDS011;36795;45.028;38.968;2022-10-31T02:11:11;14.63;;;4.30;;
49384;SDS011;36795;45.028;38.968;2022-10-31T02:13:58;17.55;;;5.40;;
49384;SDS011;36795;45.028;38.968;2022-10-31T02:16:46;14.87;;;4.53;;
49384;SDS011;36795;45.028;38.968;2022-10-31T02:19:51;11.85;;;3.55;;
49384;SDS011;36795;45.028;38.968;2022-10-31T02:30:11;12.32;;;3.75;;
49384;SDS011;36795;45.028;38.968;2022-10-31T02:39:00;12.77;;;3.78;;
49384;SDS011;36795;45.028;38.968;2022-10-31T02:47:55;13.45;;;4.00;;
49384;SDS011;36795;45.028;38.968;2022-10-31T02:50:52;11.40;;;3.95;;
49384;SDS011;36795;45.028;38.968;2022-10-31T02:53:47;12.50;;;3.72;;
49384;SDS011;36795;45.028;38.968;2022-10-31T02:56:33;14.77;;;3.78;;
49384;SDS011;36795;45.028;38.968;2022-10-31T02:59:19;11.45;;;3.80;;
49384;SDS011;36795;45.028;38.968;2022-10-31T03:08:23;11.32;;;2.60;;
49384;SDS011;36795;45.028;38.968;2022-10-31T03:11:31;10.32;;;3.25;;
49384;SDS011;36795;45.028;38.968;2022-10-31T03:14:30;7.57;;;2.70;;
49384;SDS011;36795;45.028;38.968;2022-10-31T03:17:29;10.23;;;2.58;;
49384;SDS011;36795;45.028;38.968;2022-10-31T03:20:24;6.95;;;2.70;;
49384;SDS011;36795;45.028;38.968;2022-10-31T03:23:19;11.10;;;2.95;;
49384;SDS011;36795;45.028;38.968;2022-10-31T03:26:09;9.38;;;2.85;;
49384;SDS011;36795;45.028;38.968;2022-10-31T03:29:02;8.82;;;2.90;;
49384;SDS011;36795;45.028;38.968;2022-10-31T03:31:53;9.10;;;2.78;;
49384;SDS011;36795;45.028;38.968;2022-10-31T03:35:03;21.65;;;5.45;;
49384;SDS011;36795;45.028;38.968;2022-10-31T03:37:53;10.18;;;2.87;;
49384;SDS011;36795;45.028;38.968;2022-10-31T03:40:41;10.40;;;3.12;;
49384;SDS011;36795;45.028;38.968;2022-10-31T03:43:32;11.48;;;3.00;;
49384;SDS011;36795;45.028;38.968;2022-10-31T03:46:23;7.20;;;2.70;;
49384;SDS011;36795;45.028;38.968;2022-10-31T03:49:12;12.88;;;2.72;;
49384;SDS011;36795;45.028;38.968;2022-10-31T03:52:02;7.65;;;2.37;;
49384;SDS011;36795;45.028;38.968;2022-10-31T03:54:54;8.35;;;2.55;;
49384;SDS011;36795;45.028;38.968;2022-10-31T04:00:51;10.82;;;2.53;;
49384;SDS011;36795;45.028;38.968;2022-10-31T04:03:40;8.23;;;2.35;;
49384;SDS011;36795;45.028;38.968;2022-10-31T04:06:28;7.78;;;2.40;;
49384;SDS011;36795;45.028;38.968;2022-10-31T04:09:17;13.38;;;3.00;;
49384;SDS011;36795;45.028;38.968;2022-10-31T04:12:05;9.73;;;2.60;;
49384;SDS011;36795;45.028;38.968;2022-10-31T04:14:55;9.50;;;2.50;;
49384;SDS011;36795;45.028;38.968;2022-10-31T04:17:42;12.65;;;2.40;;
49384;SDS011;36795;45.028;38.968;2022-10-31T04:20:32;10.75;;;2.67;;
49384;SDS011;36795;45.028;38.968;2022-10-31T04:23:24;14.05;;;4.03;;
49384;SDS011;36795;45.028;38.968;2022-10-31T04:26:11;10.75;;;3.05;;
49384;SDS011;36795;45.028;38.968;2022-10-31T04:28:57;13.18;;;3.10;;
49384;SDS011;36795;45.028;38.968;2022-10-31T04:31:44;16.45;;;3.15;;
49384;SDS011;36795;45.028;38.968;2022-10-31T04:34:30;14.80;;;2.83;;
49384;SDS011;36795;45.028;38.968;2022-10-31T04:37:17;11.43;;;2.65;;
49384;SDS011;36795;45.028;38.968;2022-10-31T04:40:03;11.25;;;2.33;;
49384;SDS011;36795;45.028;38.968;2022-10-31T04:42:55;15.45;;;2.70;;
49384;SDS011;36795;45.028;38.968;2022-10-31T04:45:40;14.87;;;2.97;;
49384;SDS011;36795;45.028;38.968;2022-10-31T04:48:28;8.25;;;2.37;;
49384;SDS011;36795;45.028;38.968;2022-10-31T04:51:14;11.60;;;3.00;;
49384;SDS011;36795;45.028;38.968;2022-10-31T04:54:00;9.13;;;2.30;;
49384;SDS011;36795;45.028;38.968;2022-10-31T04:56:48;16.02;;;5.00;;
49384;SDS011;36795;45.028;38.968;2022-10-31T04:59:35;11.90;;;3.12;;
49384;SDS011;36795;45.028;38.968;2022-10-31T05:02:21;11.77;;;2.83;;
49384;SDS011;36795;45.028;38.968;2022-10-31T05:05:10;13.75;;;2.83;;
49384;SDS011;36795;45.028;38.968;2022-10-31T05:07:57;11.75;;;2.60;;
49384;SDS011;36795;45.028;38.968;2022-10-31T05:10:44;11.77;;;2.60;;
49384;SDS011;36795;45.028;38.968;2022-10-31T05:13:30;9.48;;;2.40;;
49384;SDS011;36795;45.028;38.968;2022-10-31T05:16:18;5.20;;;2.08;;
49384;SDS011;36795;45.028;38.968;2022-10-31T05:19:05;9.90;;;2.00;;
49384;SDS011;36795;45.028;38.968;2022-10-31T05:21:52;8.13;;;1.70;;
49384;SDS011;36795;45.028;38.968;2022-10-31T05:24:38;8.13;;;1.90;;
49384;SDS011;36795;45.028;38.968;2022-10-31T05:27:28;11.32;;;2.05;;
49384;SDS011;36795;45.028;38.968;2022-10-31T05:30:15;12.88;;;3.00;;
49384;SDS011;36795;45.028;38.968;2022-10-31T05:33:05;14.32;;;2.08;;
49384;SDS011;36795;45.028;38.968;2022-10-31T05:35:55;13.50;;;2.58;;
49384;SDS011;36795;45.028;38.968;2022-10-31T05:38:42;15.90;;;2.25;;
49384;SDS011;36795;45.028;38.968;2022-10-31T05:41:29;11.25;;;2.08;;
49384;SDS011;36795;45.028;38.968;2022-10-31T05:44:18;13.85;;;2.40;;
49384;SDS011;36795;45.028;38.968;2022-10-31T05:47:06;11.05;;;2.75;;
49384;SDS011;36795;45.028;38.968;2022-10-31T05:49:54;14.68;;;4.25;;
49384;SDS011;36795;45.028;38.968;2022-10-31T05:52:44;19.67;;;6.78;;
49384;SDS011;36795;45.028;38.968;2022-10-31T05:55:32;18.70;;;5.75;;
49384;SDS011;36795;45.028;38.968;2022-10-31T05:58:20;16.05;;;4.97;;
49384;SDS011;36795;45.028;38.968;2022-10-31T06:01:07;7.47;;;2.65;;
49384;SDS011;36795;45.028;38.968;2022-10-31T06:03:53;5.45;;;1.92;;
49384;SDS011;36795;45.028;38.968;2022-10-31T06:06:41;7.87;;;2.25;;
49384;SDS011;36795;45.028;38.968;2022-10-31T06:09:28;4.28;;;1.70;;
49384;SDS011;36795;45.028;38.968;2022-10-31T06:12:13;13.90;;;3.25;;
49384;SDS011;36795;45.028;38.968;2022-10-31T06:15:06;5.97;;;1.75;;
49384;SDS011;36795;45.028;38.968;2022-10-31T06:18:00;5.20;;;1.75;;
49384;SDS011;36795;45.028;38.968;2022-10-31T06:20:48;8.95;;;1.98;;
49384;SDS011;36795;45.028;38.968;2022-10-31T06:23:34;7.12;;;2.05;;
49384;SDS011;36795;45.028;38.968;2022-10-31T06:26:23;9.05;;;2.00;;
49384;SDS011;36795;45.028;38.968;2022-10-31T06:29:10;8.20;;;2.00;;
49384;SDS011;36795;45.028;38.968;2022-10-31T06:32:01;8.48;;;2.28;;
49384;SDS011;36795;45.028;38.968;2022-10-31T06:34:47;9.18;;;2.10;;
49384;SDS011;36795;45.028;38.968;2022-10-31T06:37:33;11.63;;;3.15;;
49384;SDS011;36795;45.028;38.968;2022-10-31T06:40:19;10.80;;;2.72;;
49384;SDS011;36795;45.028;38.968;2022-10-31T06:43:08;8.18;;;2.60;;
49384;SDS011;36795;45.028;38.968;2022-10-31T06:45:57;11.00;;;3.00;;
49384;SDS011;36795;45.028;38.968;2022-10-31T06:48:48;10.77;;;2.75;;
49384;SDS011;36795;45.028;38.968;2022-10-31T06:51:34;12.60;;;2.70;;
49384;SDS011;36795;45.028;38.968;2022-10-31T06:54:21;14.52;;;3.78;;
49384;SDS011;36795;45.028;38.968;2022-10-31T06:57:07;16.08;;;3.80;;
49384;SDS011;36795;45.028;38.968;2022-10-31T06:59:55;14.45;;;3.75;;
49384;SDS011;36795;45.028;38.968;2022-10-31T07:02:42;14.80;;;3.80;;
49384;SDS011;36795;45.028;38.968;2022-10-31T07:05:29;11.57;;;3.30;;
49384;SDS011;36795;45.028;38.968;2022-10-31T07:08:16;12.25;;;3.53;;
49384;SDS011;36795;45.028;38.968;2022-10-31T07:11:03;16.17;;;4.53;;
49384;SDS011;36795;45.028;38.968;2022-10-31T07:13:49;15.10;;;4.28;;
49384;SDS011;36795;45.028;38.968;2022-10-31T07:16:36;18.25;;;4.70;;
49384;SDS011;36795;45.028;38.968;2022-10-31T07:19:22;19.95;;;4.90;;
49384;SDS011;36795;45.028;38.968;2022-10-31T07:22:08;18.90;;;4.95;;
49384;SDS011;36795;45.028;38.968;2022-10-31T07:24:55;26.98;;;11.65;;
49384;SDS011;36795;45.028;38.968;2022-10-31T07:27:44;21.60;;;5.82;;
49384;SDS011;36795;45.028;38.968;2022-10-31T07:30:31;17.08;;;5.35;;
49384;SDS011;36795;45.028;38.968;2022-10-31T07:33:17;19.92;;;5.55;;
49384;SDS011;36795;45.028;38.968;2022-10-31T07:36:05;23.73;;;6.68;;
49384;SDS011;36795;45.028;38.968;2022-10-31T07:38:52;21.87;;;6.10;;
49384;SDS011;36795;45.028;38.968;2022-10-31T07:41:38;21.45;;;6.10;;
49384;SDS011;36795;45.028;38.968;2022-10-31T07:44:24;21.85;;;6.68;;
49384;SDS011;36795;45.028;38.968;2022-10-31T07:47:13;17.55;;;5.07;;
49384;SDS011;36795;45.028;38.968;2022-10-31T07:50:04;17.15;;;5.57;;
49384;SDS011;36795;45.028;38.968;2022-10-31T07:55:48;19.92;;;5.72;;
49384;SDS011;36795;45.028;38.968;2022-10-31T07:58:36;22.48;;;5.87;;
49384;SDS011;36795;45.028;38.968;2022-10-31T08:01:22;22.77;;;6.05;;
49384;SDS011;36795;45.028;38.968;2022-10-31T08:04:10;22.30;;;6.03;;
49384;SDS011;36795;45.028;38.968;2022-10-31T08:07:02;23.52;;;6.65;;
49384;SDS011;36795;45.028;38.968;2022-10-31T08:09:48;23.80;;;6.15;;
49384;SDS011;36795;45.028;38.968;2022-10-31T08:12:36;20.40;;;6.30;;
49384;SDS011;36795;45.028;38.968;2022-10-31T08:15:25;25.00;;;7.87;;
49384;SDS011;36795;45.028;38.968;2022-10-31T08:18:12;22.15;;;7.87;;
49384;SDS011;36795;45.028;38.968;2022-10-31T08:21:01;24.65;;;7.82;;
49384;SDS011;36795;45.028;38.968;2022-10-31T08:23:47;24.98;;;8.60;;
49384;SDS011;36795;45.028;38.968;2022-10-31T08:26:34;22.95;;;8.65;;
49384;SDS011;36795;45.028;38.968;2022-10-31T08:29:20;23.23;;;8.27;;
49384;SDS011;36795;45.028;38.968;2022-10-31T08:32:07;23.50;;;7.45;;
49384;SDS011;36795;45.028;38.968;2022-10-31T08:34:59;21.95;;;8.00;;
49384;SDS011;36795;45.028;38.968;2022-10-31T08:37:51;22.17;;;7.75;;
49384;SDS011;36795;45.028;38.968;2022-10-31T08:40:42;24.30;;;8.63;;
49384;SDS011;36795;45.028;38.968;2022-10-31T08:43:28;21.23;;;6.87;;
49384;SDS011;36795;45.028;38.968;2022-10-31T08:46:13;25.42;;;9.05;;
49384;SDS011;36795;45.028;38.968;2022-10-31T08:49:01;24.12;;;7.97;;
49384;SDS011;36795;45.028;38.968;2022-10-31T08:51:47;23.00;;;7.68;;
49384;SDS011;36795;45.028;38.968;2022-10-31T08:54:35;22.87;;;8.07;;
49384;SDS011;36795;45.028;38.968;2022-10-31T08:57:25;21.33;;;7.20;;
49384;SDS011;36795;45.028;38.968;2022-10-31T09:00:11;22.58;;;7.15;;
49384;SDS011;36795;45.028;38.968;2022-10-31T09:02:59;23.02;;;7.72;;
49384;SDS011;36795;45.028;38.968;2022-10-31T09:05:48;23.48;;;6.50;;
49384;SDS011;36795;45.028;38.968;2022-10-31T09:08:35;24.08;;;6.62;;
49384;SDS011;36795;45.028;38.968;2022-10-31T09:11:22;23.77;;;6.18;;
49384;SDS011;36795;45.028;38.968;2022-10-31T09:14:11;19.62;;;6.45;;
49384;SDS011;36795;45.028;38.968;2022-10-31T09:17:01;24.80;;;6.87;;
49384;SDS011;36795;45.028;38.968;2022-10-31T09:19:48;28.70;;;6.70;;
49384;SDS011;36795;45.028;38.968;2022-10-31T09:22:34;19.92;;;5.32;;
49384;SDS011;36795;45.028;38.968;2022-10-31T09:25:20;20.20;;;6.22;;
49384;SDS011;36795;45.028;38.968;2022-10-31T09:28:12;20.73;;;6.50;;
49384;SDS011;36795;45.028;38.968;2022-10-31T09:31:00;20.20;;;6.28;;
49384;SDS011;36795;45.028;38.968;2022-10-31T09:33:47;19.62;;;5.68;;
49384;SDS011;36795;45.028;38.968;2022-10-31T09:36:35;20.40;;;5.43;;
49384;SDS011;36795;45.028;38.968;2022-10-31T09:39:24;21.40;;;4.87;;
49384;SDS011;36795;45.028;38.968;2022-10-31T09:45:18;20.83;;;5.18;;
49384;SDS011;36795;45.028;38.968;2022-10-31T09:54:58;19.50;;;4.20;;
49384;SDS011;36795;45.028;38.968;2022-10-31T09:57:51;16.33;;;3.95;;
49384;SDS011;36795;45.028;38.968;2022-10-31T10:00:37;14.25;;;3.70;;
49384;SDS011;36795;45.028;38.968;2022-10-31T10:06:27;15.75;;;3.45;;
49384;SDS011;36795;45.028;38.968;2022-10-31T10:09:19;16.90;;;3.72;;
49384;SDS011;36795;45.028;38.968;2022-10-31T10:18:26;17.77;;;3.78;;
49384;SDS011;36795;45.028;38.968;2022-10-31T10:21:39;15.90;;;3.40;;
49384;SDS011;36795;45.028;38.968;2022-10-31T10:31:01;14.48;;;3.30;;
49384;SDS011;36795;45.028;38.968;2022-10-31T10:36:52;18.65;;;3.28;;
49384;SDS011;36795;45.028;38.968;2022-10-31T10:39:48;17.65;;;3.28;;
49384;SDS011;36795;45.028;38.968;2022-10-31T10:42:38;14.55;;;3.47;;
49384;SDS011;36795;45.028;38.968;2022-10-31T10:45:43;14.60;;;3.33;;
49384;SDS011;36795;45.028;38.968;2022-10-31T10:55:22;18.80;;;3.50;;
49384;SDS011;36795;45.028;38.968;2022-10-31T10:58:26;14.90;;;3.55;;
49384;SDS011;36795;45.028;38.968;2022-10-31T11:01:13;18.73;;;3.58;;
49384;SDS011;36795;45.028;38.968;2022-10-31T11:04:01;10.05;;;2.60;;
49384;SDS011;36795;45.028;38.968;2022-10-31T11:07:01;16.08;;;3.42;;
49384;SDS011;36795;45.028;38.968;2022-10-31T11:10:02;15.25;;;2.78;;
49384;SDS011;36795;45.028;38.968;2022-10-31T11:13:05;11.18;;;3.00;;
49384;SDS011;36795;45.028;38.968;2022-10-31T11:16:10;13.60;;;3.25;;
49384;SDS011;36795;45.028;38.968;2022-10-31T11:22:12;12.32;;;2.85;;
49384;SDS011;36795;45.028;38.968;2022-10-31T11:25:11;12.52;;;3.17;;
49384;SDS011;36795;45.028;38.968;2022-10-31T11:28:10;14.85;;;3.40;;
49384;SDS011;36795;45.028;38.968;2022-10-31T11:30:57;11.07;;;2.83;;
49384;SDS011;36795;45.028;38.968;2022-10-31T11:33:55;13.77;;;3.15;;
49384;SDS011;36795;45.028;38.968;2022-10-31T11:36:48;15.30;;;3.53;;
49384;SDS011;36795;45.028;38.968;2022-10-31T11:39:38;16.62;;;3.53;;
49384;SDS011;36795;45.028;38.968;2022-10-31T11:42:28;18.25;;;3.95;;
49384;SDS011;36795;45.028;38.968;2022-10-31T11:45:33;14.40;;;3.42;;
49384;SDS011;36795;45.028;38.968;2022-10-31T11:48:22;12.77;;;3.15;;
49384;SDS011;36795;45.028;38.968;2022-10-31T11:51:10;17.73;;;3.95;;
49384;SDS011;36795;45.028;38.968;2022-10-31T11:53:59;19.83;;;3.62;;
49384;SDS011;36795;45.028;38.968;2022-10-31T11:56:50;15.00;;;3.75;;
49384;SDS011;36795;45.028;38.968;2022-10-31T11:59:37;18.05;;;3.90;;
49384;SDS011;36795;45.028;38.968;2022-10-31T12:02:25;15.68;;;4.05;;
49384;SDS011;36795;45.028;38.968;2022-10-31T12:05:23;15.70;;;3.83;;
49384;SDS011;36795;45.028;38.968;2022-10-31T12:08:17;17.48;;;4.10;;
49384;SDS011;36795;45.028;38.968;2022-10-31T12:11:08;18.98;;;4.07;;
49384;SDS011;36795;45.028;38.968;2022-10-31T12:14:17;19.10;;;4.18;;
49384;SDS011;36795;45.028;38.968;2022-10-31T12:17:18;17.65;;;4.00;;
49384;SDS011;36795;45.028;38.968;2022-10-31T12:29:47;17.55;;;4.22;;
49384;SDS011;36795;45.028;38.968;2022-10-31T12:39:02;20.17;;;4.55;;
49384;SDS011;36795;45.028;38.968;2022-10-31T12:42:04;20.50;;;5.22;;
49384;SDS011;36795;45.028;38.968;2022-10-31T12:45:20;13.80;;;3.80;;
49384;SDS011;36795;45.028;38.968;2022-10-31T12:48:44;18.35;;;4.37;;
49384;SDS011;36795;45.028;38.968;2022-10-31T12:52:03;18.87;;;4.80;;
49384;SDS011;36795;45.028;38.968;2022-10-31T12:58:34;19.48;;;5.87;;
49384;SDS011;36795;45.028;38.968;2022-10-31T13:01:30;21.98;;;6.62;;
49384;SDS011;36795;45.028;38.968;2022-10-31T13:07:43;20.85;;;5.37;;
49384;SDS011;36795;45.028;38.968;2022-10-31T13:16:41;21.20;;;6.00;;
49384;SDS011;36795;45.028;38.968;2022-10-31T13:19:39;21.37;;;6.30;;
49384;SDS011;36795;45.028;38.968;2022-10-31T13:22:29;24.27;;;6.93;;
49384;SDS011;36795;45.028;38.968;2022-10-31T13:25:31;25.67;;;7.00;;
49384;SDS011;36795;45.028;38.968;2022-10-31T13:28:35;26.40;;;7.43;;
49384;SDS011;36795;45.028;38.968;2022-10-31T13:31:34;20.45;;;5.40;;
49384;SDS011;36795;45.028;38.968;2022-10-31T13:34:45;24.37;;;6.85;;
49384;SDS011;36795;45.028;38.968;2022-10-31T13:37:41;20.05;;;4.80;;
49384;SDS011;36795;45.028;38.968;2022-10-31T13:40:34;16.77;;;4.37;;
49384;SDS011;36795;45.028;38.968;2022-10-31T13:43:48;19.50;;;3.97;;
49384;SDS011;36795;45.028;38.968;2022-10-31T13:46:59;18.83;;;4.65;;
49384;SDS011;36795;45.028;38.968;2022-10-31T13:49:45;21.67;;;6.03;;
49384;SDS011;36795;45.028;38.968;2022-10-31T13:52:31;16.20;;;3.55;;
49384;SDS011;36795;45.028;38.968;2022-10-31T13:58:28;19.70;;;4.22;;
49384;SDS011;36795;45.028;38.968;2022-10-31T14:01:17;20.33;;;5.18;;
49384;SDS011;36795;45.028;38.968;2022-10-31T14:04:07;26.05;;;6.05;;
49384;SDS011;36795;45.028;38.968;2022-10-31T14:07:06;22.85;;;4.75;;
49384;SDS011;36795;45.028;38.968;2022-10-31T14:09:59;19.42;;;3.87;;
49384;SDS011;36795;45.028;38.968;2022-10-31T14:12:49;18.75;;;3.78;;
49384;SDS011;36795;45.028;38.968;2022-10-31T14:15:36;20.67;;;4.35;;
49384;SDS011;36795;45.028;38.968;2022-10-31T14:18:33;16.95;;;3.97;;
49384;SDS011;36795;45.028;38.968;2022-10-31T14:27:32;17.80;;;3.72;;
49384;SDS011;36795;45.028;38.968;2022-10-31T14:30:28;22.75;;;4.35;;
49384;SDS011;36795;45.028;38.968;2022-10-31T14:33:17;23.92;;;4.85;;
49384;SDS011;36795;45.028;38.968;2022-10-31T14:36:11;23.30;;;4.30;;
49384;SDS011;36795;45.028;38.968;2022-10-31T14:39:13;27.02;;;4.37;;
49384;SDS011;36795;45.028;38.968;2022-10-31T14:51:35;18.10;;;4.57;;
49384;SDS011;36795;45.028;38.968;2022-10-31T14:54:28;21.45;;;4.57;;
49384;SDS011;36795;45.028;38.968;2022-10-31T14:57:20;25.48;;;5.82;;
49384;SDS011;36795;45.028;38.968;2022-10-31T15:00:15;22.30;;;5.05;;
49384;SDS011;36795;45.028;38.968;2022-10-31T15:03:05;23.45;;;5.22;;
49384;SDS011;36795;45.028;38.968;2022-10-31T15:06:01;19.65;;;4.68;;
49384;SDS011;36795;45.028;38.968;2022-10-31T15:08:55;19.52;;;4.72;;
49384;SDS011;36795;45.028;38.968;2022-10-31T15:11:41;19.40;;;4.95;;
49384;SDS011;36795;45.028;38.968;2022-10-31T15:14:29;22.48;;;5.78;;
49384;SDS011;36795;45.028;38.968;2022-10-31T15:17:16;21.58;;;4.53;;
49384;SDS011;36795;45.028;38.968;2022-10-31T15:20:03;18.75;;;5.50;;
49384;SDS011;36795;45.028;38.968;2022-10-31T15:22:49;22.98;;;4.80;;
49384;SDS011;36795;45.028;38.968;2022-10-31T15:25:36;25.98;;;6.55;;
49384;SDS011;36795;45.028;38.968;2022-10-31T15:28:22;21.77;;;5.30;;
49384;SDS011;36795;45.028;38.968;2022-10-31T15:31:13;26.20;;;5.05;;
49384;SDS011;36795;45.028;38.968;2022-10-31T15:34:14;19.02;;;5.37;;
49384;SDS011;36795;45.028;38.968;2022-10-31T15:37:25;14.80;;;4.50;;
49384;SDS011;36795;45.028;38.968;2022-10-31T15:40:14;17.83;;;4.22;;
49384;SDS011;36795;45.028;38.968;2022-10-31T15:43:03;16.40;;;4.85;;
49384;SDS011;36795;45.028;38.968;2022-10-31T15:45:51;15.88;;;4.20;;
49384;SDS011;36795;45.028;38.968;2022-10-31T15:48:38;15.13;;;4.18;;
49384;SDS011;36795;45.028;38.968;2022-10-31T15:51:26;17.30;;;4.57;;
49384;SDS011;36795;45.028;38.968;2022-10-31T15:54:17;13.77;;;3.75;;
49384;SDS011;36795;45.028;38.968;2022-10-31T15:57:03;14.52;;;4.05;;
49384;SDS011;36795;45.028;38.968;2022-10-31T15:59:57;14.23;;;3.78;;
49384;SDS011;36795;45.028;38.968;2022-10-31T16:02:43;18.70;;;4.47;;
49384;SDS011;36795;45.028;38.968;2022-10-31T16:05:34;18.35;;;4.55;;
49384;SDS011;36795;45.028;38.968;2022-10-31T16:14:24;17.00;;;4.45;;
49384;SDS011;36795;45.028;38.968;2022-10-31T16:17:14;15.15;;;3.87;;
49384;SDS011;36795;45.028;38.968;2022-10-31T16:20:04;18.87;;;4.53;;
49384;SDS011;36795;45.028;38.968;2022-10-31T16:22:52;17.00;;;4.35;;
49384;SDS011;36795;45.028;38.968;2022-10-31T16:25:40;20.88;;;5.25;;
49384;SDS011;36795;45.028;38.968;2022-10-31T16:28:27;15.73;;;4.57;;
49384;SDS011;36795;45.028;38.968;2022-10-31T16:31:13;19.52;;;4.80;;
49384;SDS011;36795;45.028;38.968;2022-10-31T16:34:10;17.33;;;4.82;;
49384;SDS011;36795;45.028;38.968;2022-10-31T16:37:05;19.67;;;5.07;;
49384;SDS011;36795;45.028;38.968;2022-10-31T16:39:52;16.15;;;4.10;;
49384;SDS011;36795;45.028;38.968;2022-10-31T16:42:39;16.70;;;4.40;;
49384;SDS011;36795;45.028;38.968;2022-10-31T16:45:29;17.70;;;4.45;;
49384;SDS011;36795;45.028;38.968;2022-10-31T16:48:18;17.90;;;4.80;;
49384;SDS011;36795;45.028;38.968;2022-10-31T16:51:07;18.17;;;4.97;;
49384;SDS011;36795;45.028;38.968;2022-10-31T16:53:53;19.83;;;4.65;;
49384;SDS011;36795;45.028;38.968;2022-10-31T16:56:40;21.75;;;4.68;;
49384;SDS011;36795;45.028;38.968;2022-10-31T16:59:27;21.12;;;4.80;;
49384;SDS011;36795;45.028;38.968;2022-10-31T17:02:16;17.87;;;4.50;;
49384;SDS011;36795;45.028;38.968;2022-10-31T17:05:02;18.48;;;4.47;;
49384;SDS011;36795;45.028;38.968;2022-10-31T17:07:48;16.15;;;4.10;;
49384;SDS011;36795;45.028;38.968;2022-10-31T17:10:37;22.70;;;4.22;;
49384;SDS011;36795;45.028;38.968;2022-10-31T17:13:26;26.83;;;4.65;;
49384;SDS011;36795;45.028;38.968;2022-10-31T17:16:16;19.27;;;3.97;;
49384;SDS011;36795;45.028;38.968;2022-10-31T17:19:03;16.42;;;3.92;;
49384;SDS011;36795;45.028;38.968;2022-10-31T17:21:54;11.63;;;3.28;;
49384;SDS011;36795;45.028;38.968;2022-10-31T17:24:40;12.80;;;3.03;;
49384;SDS011;36795;45.028;38.968;2022-10-31T17:27:26;14.60;;;3.22;;
49384;SDS011;36795;45.028;38.968;2022-10-31T17:30:12;14.98;;;3.65;;
49384;SDS011;36795;45.028;38.968;2022-10-31T17:33:00;12.65;;;2.55;;
49384;SDS011;36795;45.028;38.968;2022-10-31T17:35:46;12.30;;;2.85;;
49384;SDS011;36795;45.028;38.968;2022-10-31T17:38:32;14.75;;;3.00;;
49384;SDS011;36795;45.028;38.968;2022-10-31T17:41:21;13.88;;;2.40;;
49384;SDS011;36795;45.028;38.968;2022-10-31T17:44:11;9.55;;;2.30;;
49384;SDS011;36795;45.028;38.968;2022-10-31T17:46:58;15.00;;;2.60;;
49384;SDS011;36795;45.028;38.968;2022-10-31T17:49:46;10.07;;;2.40;;
49384;SDS011;36795;45.028;38.968;2022-10-31T17:52:32;9.57;;;1.92;;
49384;SDS011;36795;45.028;38.968;2022-10-31T17:55:18;9.23;;;2.10;;
49384;SDS011;36795;45.028;38.968;2022-10-31T17:58:07;11.20;;;2.37;;
49384;SDS011;36795;45.028;38.968;2022-10-31T18:00:57;14.15;;;2.45;;
49384;SDS011;36795;45.028;38.968;2022-10-31T18:03:44;10.05;;;2.08;;
49384;SDS011;36795;45.028;38.968;2022-10-31T18:06:30;14.70;;;2.00;;
49384;SDS011;36795;45.028;38.968;2022-10-31T18:09:16;8.80;;;1.60;;
49384;SDS011;36795;45.028;38.968;2022-10-31T18:12:02;8.55;;;1.77;;
49384;SDS011;36795;45.028;38.968;2022-10-31T18:14:52;5.97;;;1.42;;
49384;SDS011;36795;45.028;38.968;2022-10-31T18:17:38;9.48;;;1.77;;
49384;SDS011;36795;45.028;38.968;2022-10-31T18:20:25;13.05;;;2.55;;
49384;SDS011;36795;45.028;38.968;2022-10-31T18:23:10;8.57;;;2.00;;
49384;SDS011;36795;45.028;38.968;2022-10-31T18:25:57;6.22;;;1.98;;
49384;SDS011;36795;45.028;38.968;2022-10-31T18:28:43;9.50;;;1.90;;
49384;SDS011;36795;45.028;38.968;2022-10-31T18:31:29;10.63;;;1.80;;
49384;SDS011;36795;45.028;38.968;2022-10-31T18:34:16;6.18;;;1.80;;
49384;SDS011;36795;45.028;38.968;2022-10-31T18:37:02;7.32;;;1.70;;
49384;SDS011;36795;45.028;38.968;2022-10-31T18:39:48;8.75;;;1.50;;
49384;SDS011;36795;45.028;38.968;2022-10-31T18:42:35;6.55;;;1.58;;
49384;SDS011;36795;45.028;38.968;2022-10-31T18:45:22;5.65;;;1.48;;